Time;durP1;ratioP1;P1;durP2;ratioP2;P2;SDS_P1;SDS_P2;PMS_P1;PMS_P2;Temp;Humidity;BMP_temperature;BMP_pressure;BME280_temperature;BME280_humidity;BME280_pressure;Samples;Min_cycle;Max_cycle;Signal;HPM_P1;HPM_P2
2022/09/09 00:01:08;;;;;;;15.20;7.53;;;13.50;99.90;;;;;;5034666;28;20434;-86
2022/09/09 00:03:48;;;;;;;9.23;7.70;;;13.50;99.90;;;;;;5052571;28;20614;-85
2022/09/09 00:06:42;;;;;;;14.20;8.97;;;13.50;99.90;;;;;;5051220;28;20475;-91
2022/09/09 00:09:18;;;;;;;11.23;7.13;;;13.50;99.90;;;;;;5052621;28;20412;-89
2022/09/09 00:12:09;;;;;;;24.83;7.93;;;13.50;99.90;;;;;;5052421;28;20523;-89
2022/09/09 00:14:53;;;;;;;18.27;7.40;;;13.50;99.90;;;;;;5052575;28;20404;-86
2022/09/09 00:17:31;;;;;;;16.73;7.87;;;13.50;99.90;;;;;;5052430;28;20499;-88
2022/09/09 00:20:03;;;;;;;14.80;7.20;;;13.60;99.90;;;;;;5050899;28;20506;-85
2022/09/09 00:22:33;;;;;;;15.20;7.50;;;13.50;99.90;;;;;;5052279;28;20401;-87
2022/09/09 00:25:17;;;;;;;16.10;7.90;;;13.50;99.90;;;;;;5052352;28;20478;-85
2022/09/09 00:27:49;;;;;;;29.67;7.30;;;13.50;99.90;;;;;;5034094;28;20423;-85
2022/09/09 00:30:19;;;;;;;16.93;9.43;;;13.60;99.90;;;;;;5052212;28;20416;-86
2022/09/09 00:32:46;;;;;;;13.13;7.97;;;13.60;99.90;;;;;;5052673;28;20412;-85
2022/09/09 00:35:39;;;;;;;11.57;6.27;;;13.50;99.90;;;;;;5052170;28;20408;-91
2022/09/09 00:38:17;;;;;;;23.70;8.53;;;13.60;99.90;;;;;;5051604;28;20455;-85
2022/09/09 00:40:53;;;;;;;11.60;6.80;;;13.60;99.90;;;;;;5051718;28;20454;-86
2022/09/09 00:43:27;;;;;;;13.00;7.77;;;13.60;99.90;;;;;;5051671;28;20435;-85
2022/09/09 00:45:53;;;;;;;19.83;8.17;;;13.60;99.90;;;;;;5052206;28;20484;-88
2022/09/09 00:48:21;;;;;;;23.33;9.00;;;13.60;99.90;;;;;;5053935;28;20499;-85
2022/09/09 00:50:58;;;;;;;21.13;8.43;;;13.60;99.90;;;;;;5055831;28;20161;-86
2022/09/09 00:53:42;;;;;;;18.40;9.03;;;13.60;99.90;;;;;;5037821;28;20527;-86
2022/09/09 00:56:21;;;;;;;23.67;8.37;;;13.60;99.90;;;;;;5055263;28;20800;-86
2022/09/09 00:59:10;;;;;;;12.37;8.07;;;13.70;99.90;;;;;;5055485;28;20870;-85
2022/09/09 01:01:39;;;;;;;14.33;8.03;;;13.60;99.90;;;;;;5055590;28;20408;-86
2022/09/09 01:04:11;;;;;;;15.47;8.27;;;13.70;99.90;;;;;;5056579;28;20462;-85
2022/09/09 01:06:38;;;;;;;14.33;8.23;;;13.60;99.90;;;;;;5057432;28;20543;-85
2022/09/09 01:09:27;;;;;;;13.70;9.33;;;13.70;99.90;;;;;;5055818;28;20833;-86
2022/09/09 01:12:15;;;;;;;13.30;7.80;;;13.70;99.90;;;;;;5058909;28;20408;-91
2022/09/09 01:14:55;;;;;;;11.83;7.90;;;13.70;99.90;;;;;;5058529;28;20412;-85
2022/09/09 01:17:29;;;;;;;13.50;8.90;;;13.70;99.90;;;;;;5057199;28;20410;-87
2022/09/09 01:20:16;;;;;;;14.57;9.47;;;13.70;99.90;;;;;;5056747;28;20499;-92
2022/09/09 01:23:08;;;;;;;9.70;6.63;;;13.70;99.90;;;;;;5055484;28;20412;-91
2022/09/09 01:25:43;;;;;;;11.70;8.03;;;13.60;99.90;;;;;;5037371;28;20458;-85
2022/09/09 01:28:20;;;;;;;10.80;7.47;;;13.60;99.90;;;;;;5054814;28;20431;-88
2022/09/09 01:30:46;;;;;;;19.73;8.13;;;13.60;99.90;;;;;;5037441;28;20488;-86
2022/09/09 01:33:17;;;;;;;13.37;8.67;;;13.60;99.90;;;;;;5038115;28;20513;-93
2022/09/09 01:36:24;;;;;;;11.27;8.77;;;13.60;99.90;;;;;;5056064;28;20839;-90
2022/09/09 01:38:49;;;;;;;12.67;7.70;;;13.60;99.90;;;;;;4996493;28;20825;-85
2022/09/09 01:41:15;;;;;;;17.80;8.67;;;13.60;99.90;;;;;;5013622;28;20425;-85
2022/09/09 01:43:41;;;;;;;14.77;8.80;;;13.60;99.90;;;;;;5055043;28;20162;-90
2022/09/09 01:46:07;;;;;;;14.73;9.10;;;13.60;99.90;;;;;;5054974;28;20255;-87
2022/09/09 01:48:33;;;;;;;18.60;8.07;;;13.60;99.90;;;;;;5054674;28;20201;-85
2022/09/09 01:50:59;;;;;;;17.40;7.30;;;13.60;99.90;;;;;;5054770;28;20419;-86
2022/09/09 01:53:24;;;;;;;20.40;7.57;;;13.60;99.90;;;;;;5055448;28;20753;-88
2022/09/09 01:56:18;;;;;;;22.40;9.43;;;13.60;99.90;;;;;;5038050;28;20186;-85
2022/09/09 01:59:09;;;;;;;27.93;8.50;;;13.60;99.90;;;;;;5036604;28;20178;-86
2022/09/09 02:01:42;;;;;;;16.03;7.73;;;13.60;99.90;;;;;;5055001;28;20442;-85
2022/09/09 02:04:32;;;;;;;22.50;7.30;;;13.60;99.90;;;;;;5054851;28;20410;-86
2022/09/09 02:06:59;;;;;;;19.33;8.70;;;13.60;99.90;;;;;;5054907;28;20486;-89
2022/09/09 02:09:26;;;;;;;23.90;7.87;;;13.60;99.90;;;;;;5054634;28;20467;-88
2022/09/09 02:12:00;;;;;;;21.93;8.20;;;13.60;99.90;;;;;;5055123;28;20409;-95
2022/09/09 02:14:33;;;;;;;22.67;8.70;;;13.60;99.90;;;;;;5055629;28;20444;-90
2022/09/09 02:17:06;;;;;;;21.33;8.73;;;13.60;99.90;;;;;;5054510;28;20812;-87
2022/09/09 02:19:39;;;;;;;25.00;8.93;;;13.60;99.90;;;;;;5053362;28;20508;-88
2022/09/09 02:22:04;;;;;;;49.10;9.77;;;13.50;99.90;;;;;;5053996;28;20457;-86
2022/09/09 02:24:34;;;;;;;27.80;9.00;;;13.50;99.90;;;;;;5065055;28;20431;-87
2022/09/09 02:27:03;;;;;;;17.83;7.87;;;13.40;99.90;;;;;;5059568;28;20230;-87
2022/09/09 02:29:36;;;;;;;12.63;6.33;;;13.40;99.90;;;;;;5045490;28;20419;-86
2022/09/09 02:32:05;;;;;;;11.70;7.30;;;13.40;99.90;;;;;;5042029;28;20419;-86
2022/09/09 02:34:39;;;;;;;12.10;6.13;;;13.40;99.90;;;;;;5058752;28;20469;-86
2022/09/09 02:37:08;;;;;;;17.77;7.70;;;13.40;99.90;;;;;;5058710;28;20538;-88
2022/09/09 02:39:33;;;;;;;10.90;6.40;;;13.30;99.90;;;;;;5057259;28;20428;-90
2022/09/09 02:41:59;;;;;;;13.90;7.20;;;13.30;99.90;;;;;;5058369;28;20416;-88
2022/09/09 02:44:25;;;;;;;14.10;7.37;;;13.30;99.90;;;;;;5055702;28;20525;-87
2022/09/09 02:47:06;;;;;;;13.23;7.40;;;13.30;99.90;;;;;;5040633;28;20209;-87
2022/09/09 02:49:52;;;;;;;18.40;7.20;;;13.20;99.90;;;;;;5059404;28;20168;-91
2022/09/09 02:52:28;;;;;;;9.50;6.20;;;13.20;99.90;;;;;;5059945;28;20414;-86
2022/09/09 02:54:59;;;;;;;16.40;6.03;;;13.10;99.90;;;;;;5057462;28;20438;-87
2022/09/09 02:57:29;;;;;;;14.23;5.80;;;13.10;99.90;;;;;;5055541;28;20451;-93
2022/09/09 02:59:58;;;;;;;12.70;5.60;;;13.10;99.90;;;;;;5045855;28;20835;-86
2022/09/09 03:02:25;;;;;;;8.17;5.67;;;13.10;99.90;;;;;;5063816;28;20444;-87
2022/09/09 03:04:51;;;;;;;9.17;6.50;;;13.10;99.90;;;;;;5058012;28;20411;-96
2022/09/09 03:07:18;;;;;;;19.33;7.40;;;13.10;99.90;;;;;;5055005;28;20467;-93
2022/09/09 03:09:44;;;;;;;11.30;6.50;;;13.10;99.90;;;;;;5058826;28;20411;-89
2022/09/09 03:12:10;;;;;;;10.10;5.53;;;13.10;99.90;;;;;;5060141;28;20446;-86
2022/09/09 03:14:37;;;;;;;9.27;6.20;;;13.10;99.90;;;;;;5068001;23;20502;-89
2022/09/09 03:17:04;;;;;;;11.80;7.47;;;13.10;99.90;;;;;;5064145;28;20452;-87
2022/09/09 03:19:29;;;;;;;17.13;7.23;;;13.10;99.90;;;;;;5062751;28;20412;-87
2022/09/09 03:21:55;;;;;;;15.83;7.90;;;13.10;99.90;;;;;;5069830;28;20439;-88
2022/09/09 03:24:22;;;;;;;8.80;5.73;;;13.00;99.90;;;;;;5063309;28;20211;-94
2022/09/09 03:26:48;;;;;;;15.40;7.57;;;13.00;99.90;;;;;;5057448;28;20976;-95
2022/09/09 03:29:14;;;;;;;10.63;6.67;;;13.00;99.90;;;;;;5053854;28;20428;-95
2022/09/09 03:31:40;;;;;;;11.57;6.53;;;13.10;99.90;;;;;;5054255;28;20276;-92
2022/09/09 03:34:06;;;;;;;12.03;6.70;;;13.10;99.90;;;;;;5036137;28;20464;-89
2022/09/09 03:36:32;;;;;;;15.07;6.33;;;13.00;99.90;;;;;;5054926;28;20438;-89
2022/09/09 03:39:00;;;;;;;13.37;7.50;;;13.00;99.90;;;;;;5058579;28;20449;-94
2022/09/09 03:41:26;;;;;;;12.57;5.93;;;12.90;99.90;;;;;;5061489;28;20427;-88
2022/09/09 03:43:53;;;;;;;10.47;5.37;;;12.90;99.90;;;;;;5057859;28;20412;-92
2022/09/09 03:46:20;;;;;;;8.47;5.30;;;12.90;99.90;;;;;;5035236;28;20502;-87
2022/09/09 03:48:46;;;;;;;13.83;5.10;;;12.80;99.90;;;;;;5035646;28;20460;-92
2022/09/09 03:51:12;;;;;;;12.37;4.37;;;12.80;99.90;;;;;;5052376;28;20408;-93
2022/09/09 03:53:46;;;;;;;9.27;6.10;;;12.80;99.90;;;;;;5035509;28;20231;-89
2022/09/09 03:56:12;;;;;;;17.47;6.00;;;12.80;99.90;;;;;;5035312;28;20888;-93
2022/09/09 03:58:43;;;;;;;11.57;6.23;;;12.70;99.90;;;;;;5053369;28;20476;-93
2022/09/09 04:01:13;;;;;;;8.23;5.17;;;12.70;99.90;;;;;;5053241;28;20173;-92
2022/09/09 04:03:39;;;;;;;13.03;6.37;;;12.70;99.90;;;;;;5035667;28;20814;-92
2022/09/09 04:06:09;;;;;;;10.60;4.90;;;12.70;99.90;;;;;;5035248;28;20472;-91
2022/09/09 04:08:35;;;;;;;5.97;4.20;;;12.60;99.90;;;;;;5035305;28;20447;-92
2022/09/09 04:11:06;;;;;;;8.03;6.13;;;12.70;99.90;;;;;;5053020;28;20444;-88
2022/09/09 04:13:37;;;;;;;16.43;7.73;;;12.60;99.90;;;;;;5036434;28;20821;-89
2022/09/09 04:16:03;;;;;;;11.77;5.90;;;12.60;99.90;;;;;;5045398;28;20916;-89
2022/09/09 04:18:29;;;;;;;10.00;6.70;;;12.60;99.90;;;;;;5064829;28;20475;-95
2022/09/09 04:20:57;;;;;;;16.63;7.03;;;12.60;99.90;;;;;;5066064;28;20418;-89
2022/09/09 04:23:24;;;;;;;10.07;5.10;;;12.60;99.90;;;;;;5054561;28;20947;-87
2022/09/09 04:25:53;;;;;;;8.60;5.73;;;12.60;99.90;;;;;;5072131;28;20475;-95
2022/09/09 04:30:48;;;;;;;8.20;5.50;;;12.60;99.90;;;;;;5094552;28;20469;-88
2022/09/09 04:33:15;;;;;;;9.37;6.20;;;12.70;99.90;;;;;;5083521;28;20424;-88
2022/09/09 04:35:49;;;;;;;11.00;5.70;;;12.70;99.90;;;;;;5076123;28;20175;-88
2022/09/09 04:38:16;;;;;;;9.63;6.50;;;12.70;99.90;;;;;;5074806;28;20738;-90
2022/09/09 04:40:43;;;;;;;8.87;5.77;;;12.70;99.90;;;;;;5074850;28;20419;-89
2022/09/09 04:43:09;;;;;;;9.10;6.77;;;12.80;99.90;;;;;;5075234;28;20424;-86
2022/09/09 04:45:35;;;;;;;10.33;6.80;;;12.70;99.90;;;;;;5076089;28;20545;-93
2022/09/09 04:48:02;;;;;;;9.80;6.00;;;12.80;99.90;;;;;;5075543;28;20422;-95
2022/09/09 04:50:28;;;;;;;10.00;6.73;;;12.80;99.90;;;;;;5076635;28;20171;-93
2022/09/09 04:52:53;;;;;;;8.47;6.00;;;12.80;99.90;;;;;;5076360;28;20933;-86
2022/09/09 04:55:19;;;;;;;9.60;6.73;;;12.80;99.90;;;;;;5074548;28;20426;-92
2022/09/09 04:57:45;;;;;;;9.10;6.90;;;12.80;99.90;;;;;;5076547;28;20172;-93
2022/09/09 05:00:11;;;;;;;9.33;7.33;;;12.80;99.90;;;;;;5076347;28;20402;-94
2022/09/09 05:02:38;;;;;;;9.77;7.23;;;12.80;99.90;;;;;;5074877;28;20260;-87
2022/09/09 05:05:04;;;;;;;10.87;6.40;;;12.80;99.90;;;;;;5075495;28;20415;-94
2022/09/09 05:07:32;;;;;;;9.50;6.37;;;12.80;99.90;;;;;;5073366;28;20476;-95
2022/09/09 05:10:05;;;;;;;8.70;5.07;;;12.80;99.90;;;;;;5075937;28;20181;-87
2022/09/09 05:12:31;;;;;;;9.20;5.97;;;12.80;99.90;;;;;;5074794;28;20426;-96
2022/09/09 05:14:57;;;;;;;8.77;6.07;;;12.80;99.90;;;;;;5074878;28;20778;-87
2022/09/09 05:17:23;;;;;;;8.20;6.37;;;12.80;99.90;;;;;;5074516;28;20427;-86
2022/09/09 05:19:49;;;;;;;9.10;6.00;;;12.80;99.90;;;;;;5075872;28;20176;-86
2022/09/09 05:22:22;;;;;;;7.17;5.47;;;12.90;99.90;;;;;;5074972;28;20435;-86
2022/09/09 05:24:52;;;;;;;9.03;6.20;;;12.90;99.90;;;;;;5075710;28;20218;-91
2022/09/09 05:27:19;;;;;;;9.70;6.30;;;12.90;99.90;;;;;;5075587;28;20469;-94
2022/09/09 05:29:45;;;;;;;8.80;5.80;;;12.90;99.90;;;;;;5081717;28;20797;-95
2022/09/09 05:32:10;;;;;;;9.83;6.13;;;13.00;99.90;;;;;;5077450;28;20427;-94
2022/09/09 05:34:37;;;;;;;9.77;7.10;;;13.10;99.90;;;;;;5077015;28;20426;-91
2022/09/09 05:37:04;;;;;;;6.80;5.03;;;13.10;99.90;;;;;;5077114;28;20176;-88
2022/09/09 05:39:32;;;;;;;7.90;4.70;;;13.10;99.90;;;;;;5095117;28;20449;-86
2022/09/09 05:41:58;;;;;;;7.30;5.67;;;13.10;99.90;;;;;;5095027;28;20487;-95
2022/09/09 05:44:27;;;;;;;9.03;5.40;;;13.20;99.90;;;;;;5095051;28;20414;-86
2022/09/09 05:46:54;;;;;;;8.90;6.07;;;13.20;99.90;;;;;;5076941;28;20579;-96
2022/09/09 05:49:19;;;;;;;5.87;4.57;;;13.20;99.90;;;;;;5099201;28;20476;-86
2022/09/09 05:51:45;;;;;;;8.20;5.60;;;13.30;99.90;;;;;;5083923;28;20423;-87
2022/09/09 05:54:10;;;;;;;7.77;5.30;;;13.40;99.90;;;;;;5080332;28;20172;-89
2022/09/09 05:56:36;;;;;;;9.80;5.17;;;13.40;99.90;;;;;;5076935;28;20654;-86
2022/09/09 05:59:01;;;;;;;8.33;5.20;;;13.50;99.90;;;;;;5096357;28;20169;-92
2022/09/09 06:01:30;;;;;;;8.53;5.47;;;13.50;99.90;;;;;;5098358;28;20208;-87
2022/09/09 06:03:57;;;;;;;7.30;5.03;;;13.50;99.90;;;;;;5078818;28;20173;-86
2022/09/09 06:06:29;;;;;;;8.27;5.23;;;13.60;99.90;;;;;;5098033;28;20473;-87
2022/09/09 06:08:59;;;;;;;6.73;4.63;;;13.60;99.90;;;;;;5105342;28;20403;-91
2022/09/09 06:11:30;;;;;;;5.23;4.30;;;13.70;99.90;;;;;;5103227;28;20763;-88
2022/09/09 06:13:56;;;;;;;7.93;5.10;;;13.70;99.90;;;;;;5106105;28;20383;-88
2022/09/09 06:16:24;;;;;;;5.90;4.47;;;13.60;99.90;;;;;;5093236;28;20426;-94
2022/09/09 06:18:50;;;;;;;5.63;4.00;;;13.70;99.90;;;;;;5068038;28;20181;-87
2022/09/09 06:21:18;;;;;;;6.30;3.77;;;13.80;99.90;;;;;;5097609;28;20415;-88
2022/09/09 06:23:44;;;;;;;7.70;4.97;;;13.80;99.90;;;;;;5097383;28;20411;-92
2022/09/09 06:26:18;;;;;;;5.40;4.03;;;13.80;99.90;;;;;;5082423;28;20455;-92
2022/09/09 06:28:45;;;;;;;6.27;4.73;;;13.90;99.90;;;;;;5104106;28;20422;-94
2022/09/09 06:31:12;;;;;;;6.33;5.00;;;13.90;99.90;;;;;;5100747;28;20454;-87
2022/09/09 06:33:40;;;;;;;5.00;3.27;;;14.00;99.90;;;;;;5102157;28;20509;-96
2022/09/09 06:36:10;;;;;;;5.43;3.87;;;14.00;99.90;;;;;;5103488;28;20830;-90
2022/09/09 06:38:35;;;;;;;5.53;4.30;;;14.10;99.90;;;;;;5099713;28;20419;-92
2022/09/09 06:41:01;;;;;;;6.23;4.77;;;14.20;99.90;;;;;;5080519;28;20439;-89
2022/09/09 06:43:27;;;;;;;5.17;4.10;;;14.30;99.90;;;;;;5081093;28;20181;-95
2022/09/09 06:45:55;;;;;;;5.20;3.93;;;14.40;99.90;;;;;;5079362;28;20951;-87
2022/09/09 06:48:20;;;;;;;3.20;2.80;;;14.50;99.90;;;;;;5081224;28;20427;-90
2022/09/09 06:50:46;;;;;;;4.30;2.70;;;14.50;99.90;;;;;;5080818;28;20812;-89
2022/09/09 06:53:11;;;;;;;5.00;2.80;;;14.60;99.90;;;;;;5082392;28;20177;-87
2022/09/09 06:55:37;;;;;;;5.00;3.33;;;14.70;99.90;;;;;;5082834;28;20226;-92
2022/09/09 06:58:08;;;;;;;3.47;3.10;;;15.00;99.90;;;;;;5087202;28;20178;-86
2022/09/09 07:00:34;;;;;;;2.70;2.30;;;15.60;99.90;;;;;;5105985;28;20740;-86
2022/09/09 07:03:06;;;;;;;6.03;2.53;;;16.10;99.90;;;;;;5109170;28;20415;-92
2022/09/09 07:05:31;;;;;;;4.13;2.40;;;16.50;99.90;;;;;;5108148;28;20203;-86
2022/09/09 07:07:57;;;;;;;3.93;2.30;;;16.80;99.90;;;;;;5089635;28;20462;-87
2022/09/09 07:10:22;;;;;;;3.33;2.33;;;17.00;99.90;;;;;;5101152;28;20224;-86
2022/09/09 07:12:54;;;;;;;3.60;2.10;;;18.30;99.90;;;;;;5101770;28;20197;-87
2022/09/09 07:15:21;;;;;;;3.00;2.43;;;18.00;99.90;;;;;;5079094;28;20170;-87
2022/09/09 07:17:49;;;;;;;3.63;2.20;;;16.90;99.90;;;;;;5100245;28;20419;-87
2022/09/09 07:20:15;;;;;;;7.40;2.50;;;16.50;99.90;;;;;;5079927;28;20474;-86
2022/09/09 07:22:41;;;;;;;1.87;1.67;;;16.50;99.90;;;;;;5100577;28;20451;-86
2022/09/09 07:25:07;;;;;;;2.30;1.57;;;16.60;99.90;;;;;;5094538;28;20425;-88
2022/09/09 07:27:33;;;;;;;3.60;1.33;;;16.90;99.90;;;;;;5094079;28;20250;-86
2022/09/09 07:29:58;;;;;;;3.40;1.33;;;17.80;99.90;;;;;;5075837;28;20985;-88
2022/09/09 07:32:25;;;;;;;2.50;1.13;;;19.80;99.90;;;;;;5094589;28;20168;-87
2022/09/09 07:34:51;;;;;;;2.80;1.37;;;22.50;99.90;;;;;;5093838;28;20169;-87
2022/09/09 07:37:17;;;;;;;1.60;0.97;;;23.20;1.00;;;;;;5095282;28;20409;-85
2022/09/09 07:39:43;;;;;;;1.30;1.00;;;24.80;99.90;;;;;;5093762;28;21055;-86
2022/09/09 07:42:11;;;;;;;0.90;0.60;;;24.60;99.90;;;;;;5093492;28;20432;-91
2022/09/09 07:44:39;;;;;;;1.40;0.40;;;25.20;99.90;;;;;;5079172;28;20449;-91
2022/09/09 07:47:04;;;;;;;1.30;0.70;;;26.20;99.90;;;;;;5094126;28;20992;-89
2022/09/09 07:49:30;;;;;;;1.57;0.83;;;25.10;99.90;;;;;;5079497;28;20410;-90
2022/09/09 07:51:55;;;;;;;3.03;0.30;;;26.20;99.90;;;;;;5099579;28;20259;-93
2022/09/09 07:54:23;;;;;;;1.10;0.30;;;23.80;99.90;;;;;;5077599;28;20175;-90
2022/09/09 07:56:49;;;;;;;0.83;0.47;;;21.70;1.00;;;;;;5078852;28;20196;-90
2022/09/09 07:59:16;;;;;;;1.60;0.30;;;19.90;1.00;;;;;;5100255;28;20402;-95
2022/09/09 08:01:47;;;;;;;1.23;0.40;;;18.90;99.90;;;;;;5086519;28;20474;-91
2022/09/09 08:04:16;;;;;;;2.20;0.60;;;18.30;99.90;;;;;;5100672;28;20410;-94
2022/09/09 08:06:50;;;;;;;0.80;0.40;;;18.00;99.90;;;;;;5101471;28;20465;-88
2022/09/09 08:09:15;;;;;;;2.13;0.60;;;17.80;99.90;;;;;;5104582;28;20428;-87
2022/09/09 08:11:42;;;;;;;1.13;0.40;;;17.80;99.90;;;;;;5080811;28;20429;-94
2022/09/09 08:14:10;;;;;;;1.60;0.43;;;17.80;99.90;;;;;;5085610;28;20174;-88
2022/09/09 08:16:42;;;;;;;1.80;0.63;;;18.00;99.90;;;;;;5085961;28;20414;-88
2022/09/09 08:19:08;;;;;;;2.00;0.60;;;18.20;99.90;;;;;;5101104;28;20992;-90
2022/09/09 08:21:36;;;;;;;1.33;0.47;;;18.70;99.90;;;;;;5080488;28;20425;-88
2022/09/09 08:24:02;;;;;;;0.97;0.47;;;18.80;99.90;;;;;;5099023;28;20400;-89
2022/09/09 08:26:34;;;;;;;0.70;0.27;;;19.30;99.90;;;;;;5101141;28;20466;-88
2022/09/09 08:29:00;;;;;;;1.90;0.60;;;19.30;99.90;;;;;;5088136;28;20441;-88
2022/09/09 08:31:29;;;;;;;2.00;0.30;;;18.90;99.90;;;;;;5087672;28;20533;-91
2022/09/09 08:33:55;;;;;;;1.37;0.57;;;18.70;99.90;;;;;;5089744;28;20432;-95
2022/09/09 08:36:23;;;;;;;0.83;0.30;;;18.20;99.90;;;;;;5105735;28;20427;-91
2022/09/09 08:38:50;;;;;;;1.13;0.60;;;18.10;99.90;;;;;;5085796;28;20456;-93
2022/09/09 08:41:29;;;;;;;0.87;0.40;;;18.10;99.90;;;;;;5104088;28;20938;-87
2022/09/09 08:44:39;;;;;;;1.13;0.40;;;18.40;99.90;;;;;;5083669;28;20791;-87
2022/09/09 08:47:18;;;;;;;1.57;0.30;;;18.40;99.90;;;;;;5086283;28;20470;-88
2022/09/09 08:50:24;;;;;;;1.30;0.60;;;18.80;99.90;;;;;;5102341;28;20487;-87
2022/09/09 08:52:59;;;;;;;2.00;0.30;;;19.10;99.90;;;;;;5102118;28;20430;-88
2022/09/09 08:55:44;;;;;;;1.23;0.57;;;19.40;30.00;;;;;;5100664;28;20424;-87
2022/09/09 08:58:14;;;;;;;2.10;0.70;;;19.30;90.00;;;;;;5101748;28;20407;-87
2022/09/09 09:00:56;;;;;;;2.20;0.43;;;19.70;99.90;;;;;;5097806;28;20413;-87
2022/09/09 09:03:50;;;;;;;1.13;0.57;;;20.70;1.00;;;;;;5100604;28;20406;-86
2022/09/09 09:06:45;;;;;;;1.00;0.30;;;20.70;99.90;;;;;;5079721;28;20794;-87
2022/09/09 09:09:43;;;;;;;2.37;0.67;;;20.60;99.90;;;;;;5095290;28;20403;-86
2022/09/09 09:12:20;;;;;;;1.43;0.40;;;20.60;99.90;;;;;;5079704;28;20422;-86
2022/09/09 09:14:47;;;;;;;2.90;0.50;;;21.40;99.90;;;;;;5096446;28;20922;-85
2022/09/09 09:17:20;;;;;;;1.10;0.50;;;21.80;99.90;;;;;;5077962;28;20479;-85
2022/09/09 09:19:46;;;;;;;1.17;0.30;;;21.70;1.00;;;;;;5095951;28;20506;-85
2022/09/09 09:22:31;;;;;;;1.43;0.67;;;21.10;99.90;;;;;;5077669;28;20767;-85
2022/09/09 09:25:08;;;;;;;1.17;0.30;;;21.80;1.00;;;;;;5095880;28;20907;-86
2022/09/09 09:27:38;;;;;;;1.23;0.30;;;22.10;1.00;;;;;;5079194;28;20501;-84
2022/09/09 09:30:18;;;;;;;1.30;0.40;;;21.70;99.90;;;;;;5095507;28;20477;-85
2022/09/09 09:32:57;;;;;;;0.53;0.30;;;21.30;99.90;;;;;;5077467;28;20784;-86
2022/09/09 09:35:23;;;;;;;5.60;0.77;;;21.00;99.90;;;;;;5095350;28;20456;-86
2022/09/09 09:37:49;;;;;;;0.70;0.40;;;21.50;1.00;;;;;;5095763;28;20410;-84
2022/09/09 09:40:20;;;;;;;1.50;0.37;;;22.10;1.00;;;;;;5095258;28;20752;-88
2022/09/09 09:42:58;;;;;;;1.60;0.37;;;25.90;99.90;;;;;;5095847;28;20172;-87
2022/09/09 09:45:35;;;;;;;0.60;0.20;;;27.40;99.90;;;;;;5095325;28;20478;-86
2022/09/09 09:48:08;;;;;;;0.90;0.30;;;26.20;99.90;;;;;;5095284;28;20417;-85
2022/09/09 09:50:34;;;;;;;1.17;0.50;;;23.70;99.90;;;;;;5077004;28;20719;-85
2022/09/09 09:53:04;;;;;;;0.70;0.20;;;22.50;1.00;;;;;;5095210;28;20509;-85
2022/09/09 09:55:31;;;;;;;0.70;0.70;;;21.60;99.90;;;;;;5094847;28;20400;-87
2022/09/09 09:58:05;;;;;;;1.33;0.30;;;21.20;99.90;;;;;;5095122;28;20410;-87
2022/09/09 10:00:32;;;;;;;0.90;0.30;;;20.80;99.90;;;;;;5095378;28;20446;-88
2022/09/09 10:02:59;;;;;;;2.40;0.70;;;21.10;99.90;;;;;;5076921;28;20422;-86
2022/09/09 10:05:28;;;;;;;2.33;0.30;;;22.40;1.00;;;;;;5076758;28;20762;-86
2022/09/09 10:08:11;;;;;;;1.37;0.37;;;23.80;1.00;;;;;;5077221;28;20495;-87
2022/09/09 10:11:15;;;;;;;2.10;0.40;;;25.40;99.90;;;;;;5077564;28;20426;-87
2022/09/09 10:13:59;;;;;;;1.10;0.60;;;25.90;99.90;;;;;;5095479;28;20421;-85
2022/09/09 10:16:52;;;;;;;1.73;0.63;;;26.00;99.90;;;;;;5095807;28;20406;-85
2022/09/09 10:19:33;;;;;;;0.70;0.40;;;25.20;99.90;;;;;;5095802;28;20406;-85
2022/09/09 10:22:20;;;;;;;0.80;0.20;;;25.10;99.90;;;;;;5078180;28;20426;-86
2022/09/09 10:25:14;;;;;;;0.90;0.50;;;23.50;99.90;;;;;;5094613;28;20429;-88
2022/09/09 10:27:54;;;;;;;1.20;0.40;;;24.20;8.60;;;;;;5095476;28;20531;-85
2022/09/09 10:30:39;;;;;;;1.90;0.30;;;25.70;99.90;;;;;;5095944;28;20861;-87
2022/09/09 10:33:39;;;;;;;1.17;0.30;;;25.60;99.90;;;;;;5095933;28;20421;-89
2022/09/09 10:36:13;;;;;;;2.53;0.70;;;24.10;99.90;;;;;;5094354;28;20417;-89
2022/09/09 10:38:44;;;;;;;1.03;0.60;;;22.50;62.40;;;;;;5094505;28;20413;-89
2022/09/09 10:41:42;;;;;;;1.40;0.43;;;22.20;99.90;;;;;;5094105;28;20406;-88
2022/09/09 10:44:45;;;;;;;1.43;0.53;;;22.40;1.00;;;;;;5094344;28;20418;-89
2022/09/09 10:47:29;;;;;;;1.90;0.40;;;23.40;1.00;;;;;;5093079;28;20969;-91
2022/09/09 10:50:18;;;;;;;0.77;0.33;;;24.60;99.90;;;;;;5093099;28;20411;-91
2022/09/09 10:53:10;;;;;;;0.60;0.20;;;24.30;99.90;;;;;;5093888;28;20413;-91
2022/09/09 10:55:51;;;;;;;0.60;0.33;;;23.00;1.00;;;;;;5092307;28;20747;-89
2022/09/09 10:58:30;;;;;;;1.80;0.67;;;22.00;99.90;;;;;;5075817;28;20918;-87
2022/09/09 11:01:07;;;;;;;0.40;0.33;;;21.50;99.90;;;;;;5093999;28;20399;-86
2022/09/09 11:03:35;;;;;;;1.40;0.70;;;21.10;99.90;;;;;;5093936;28;20405;-93
2022/09/09 11:06:05;;;;;;;2.07;0.40;;;21.00;1.00;;;;;;5094055;28;20456;-87
2022/09/09 11:08:34;;;;;;;3.17;0.60;;;21.20;1.00;;;;;;5093532;28;20414;-85
2022/09/09 11:11:11;;;;;;;1.43;0.40;;;21.30;99.90;;;;;;5092982;28;20450;-85
2022/09/09 11:13:54;;;;;;;3.13;0.57;;;21.20;99.90;;;;;;5075487;28;20761;-87
2022/09/09 11:16:30;;;;;;;2.80;0.60;;;21.30;1.00;;;;;;5093489;28;20777;-88
2022/09/09 11:19:04;;;;;;;1.93;0.47;;;21.40;99.90;;;;;;5093442;28;20413;-86
2022/09/09 11:21:42;;;;;;;1.37;0.50;;;21.60;99.90;;;;;;5075125;28;20418;-86
2022/09/09 11:24:27;;;;;;;2.60;0.70;;;22.60;1.00;;;;;;5074841;28;20426;-85
2022/09/09 11:27:06;;;;;;;1.10;0.30;;;24.20;1.00;;;;;;5093160;28;20996;-85
2022/09/09 11:30:03;;;;;;;1.37;0.27;;;24.80;99.90;;;;;;5093095;28;20450;-88
2022/09/09 11:32:59;;;;;;;2.20;0.20;;;23.50;99.90;;;;;;5092514;28;20421;-87
2022/09/09 11:35:35;;;;;;;0.80;0.33;;;22.10;99.90;;;;;;5091830;28;20410;-88
2022/09/09 11:38:25;;;;;;;1.57;0.40;;;21.60;99.90;;;;;;5093049;28;20410;-88
2022/09/09 11:41:08;;;;;;;3.13;0.50;;;21.30;1.00;;;;;;5092708;28;20470;-86
2022/09/09 11:43:45;;;;;;;1.50;0.20;;;21.00;1.00;;;;;;5074628;28;20432;-86
2022/09/09 11:46:13;;;;;;;1.00;0.30;;;20.70;17.60;;;;;;5092810;28;20465;-84
2022/09/09 11:48:39;;;;;;;1.13;0.40;;;20.70;1.00;;;;;;5093014;28;20840;-85
2022/09/09 11:51:12;;;;;;;2.10;0.50;;;20.80;1.00;;;;;;5092937;28;20505;-87
2022/09/09 11:53:55;;;;;;;1.70;0.50;;;20.70;1.00;;;;;;5092950;28;20160;-88
2022/09/09 11:56:33;;;;;;;1.53;0.30;;;20.70;1.00;;;;;;5092565;28;20411;-88
2022/09/09 11:59:02;;;;;;;1.73;0.67;;;20.60;1.00;;;;;;5074978;28;20769;-88
2022/09/09 12:01:37;;;;;;;0.70;0.40;;;20.80;1.00;;;;;;5093063;28;20417;-87
2022/09/09 12:04:17;;;;;;;0.93;0.23;;;20.70;37.90;;;;;;5074944;28;20411;-89
2022/09/09 12:07:02;;;;;;;0.90;0.20;;;20.50;1.00;;;;;;5092905;28;20529;-88
2022/09/09 12:09:37;;;;;;;0.80;0.50;;;20.50;99.90;;;;;;5091231;28;20416;-90
2022/09/09 12:12:12;;;;;;;2.43;0.70;;;20.20;99.90;;;;;;5091758;28;20546;-87
2022/09/09 12:14:40;;;;;;;1.07;0.57;;;20.10;25.70;;;;;;5092954;28;20440;-87
2022/09/09 12:17:18;;;;;;;0.90;0.40;;;20.10;99.90;;;;;;5092896;28;20412;-87
2022/09/09 12:19:44;;;;;;;0.60;0.30;;;20.00;99.90;;;;;;5092887;28;20411;-88
2022/09/09 12:22:35;;;;;;;2.53;0.57;;;20.10;99.90;;;;;;5092820;28;21028;-87
2022/09/09 12:25:08;;;;;;;1.43;0.40;;;20.10;99.90;;;;;;5092531;28;20200;-88
2022/09/09 12:27:40;;;;;;;1.40;0.80;;;20.30;99.90;;;;;;5091488;28;20477;-89
2022/09/09 12:30:15;;;;;;;1.30;0.50;;;20.30;99.90;;;;;;5074675;28;20554;-88
2022/09/09 12:32:41;;;;;;;2.50;0.77;;;20.30;98.80;;;;;;5092919;28;20429;-88
2022/09/09 12:35:22;;;;;;;1.37;0.50;;;20.40;71.30;;;;;;5093007;28;20528;-90
2022/09/09 12:37:58;;;;;;;1.00;0.30;;;20.20;40.00;;;;;;5074911;28;20174;-88
2022/09/09 12:40:29;;;;;;;2.70;0.70;;;20.30;50.70;;;;;;5074372;28;20815;-89
2022/09/09 12:42:55;;;;;;;0.80;0.53;;;20.40;99.90;;;;;;5093307;28;20416;-88
2022/09/09 12:45:24;;;;;;;3.20;0.87;;;20.70;82.30;;;;;;5097114;28;20518;-88
2022/09/09 12:48:02;;;;;;;3.07;1.17;;;20.90;1.00;;;;;;5096522;28;20763;-88
2022/09/09 12:50:31;;;;;;;2.63;0.60;;;20.80;1.00;;;;;;5096425;28;20904;-89
2022/09/09 12:53:08;;;;;;;1.53;0.40;;;21.00;1.00;;;;;;5096171;28;20412;-88
2022/09/09 12:55:39;;;;;;;0.93;0.50;;;21.00;1.00;;;;;;5077703;28;20413;-88
2022/09/09 12:58:06;;;;;;;0.90;0.30;;;21.20;1.00;;;;;;5078087;28;20454;-90
2022/09/09 13:00:34;;;;;;;1.00;0.53;;;21.10;1.00;;;;;;5096233;28;20427;-89
2022/09/09 13:03:13;;;;;;;1.00;0.57;;;21.10;1.00;;;;;;5095972;28;20500;-89
2022/09/09 13:05:39;;;;;;;1.60;0.50;;;21.00;99.90;;;;;;5096292;28;20405;-89
2022/09/09 13:08:08;;;;;;;1.77;0.63;;;20.90;99.90;;;;;;5096136;28;20423;-89
2022/09/09 13:10:38;;;;;;;2.00;0.87;;;20.80;99.90;;;;;;5077631;28;20170;-88
2022/09/09 13:13:15;;;;;;;1.43;0.60;;;20.50;1.00;;;;;;5095936;28;20791;-87
2022/09/09 13:15:52;;;;;;;1.00;0.70;;;20.40;1.00;;;;;;5077821;28;20428;-89